createdAt,value
2022-09-05T00:02:01.957Z,99.90
2022-09-05T00:04:24.616Z,99.90
2022-09-05T00:06:38.023Z,99.90
2022-09-05T00:08:54.835Z,99.90
2022-09-05T00:11:40.659Z,99.90
2022-09-05T00:13:42.524Z,99.90
2022-09-05T00:16:02.442Z,99.90
2022-09-05T00:20:53.802Z,99.90
2022-09-05T00:24:20.190Z,99.90
2022-09-05T00:24:28.183Z,99.90
2022-09-05T00:26:33.968Z,99.90
2022-09-05T00:28:47.082Z,99.90
2022-09-05T00:31:54.275Z,99.90
2022-09-05T00:33:57.317Z,99.90
2022-09-05T00:36:20.925Z,99.90
2022-09-05T00:38:36.990Z,99.90
2022-09-05T00:40:49.570Z,99.90
2022-09-05T00:42:59.827Z,99.90
2022-09-05T00:45:14.539Z,99.90
2022-09-05T00:47:39.223Z,99.90
2022-09-05T00:49:52.665Z,99.90
2022-09-05T00:52:08.182Z,99.90
2022-09-05T00:54:41.814Z,99.90
2022-09-05T00:57:03.250Z,99.90
2022-09-05T00:59:58.938Z,99.90
2022-09-05T01:02:17.626Z,99.90
2022-09-05T01:04:39.343Z,99.90
2022-09-05T01:07:12.379Z,99.90
2022-09-05T01:09:34.001Z,99.90
2022-09-05T01:11:53.678Z,99.90
2022-09-05T01:14:13.139Z,99.90
2022-09-05T01:16:29.307Z,99.90
2022-09-05T01:18:49.733Z,99.90
2022-09-05T01:21:28.859Z,99.90
2022-09-05T01:23:57.809Z,99.90
2022-09-05T01:26:27.308Z,99.50
2022-09-05T01:29:15.939Z,99.00
2022-09-05T01:31:18.335Z,98.60
2022-09-05T01:33:37.183Z,98.00
2022-09-05T01:36:12.419Z,97.90
2022-09-05T01:38:29.330Z,97.40
2022-09-05T01:40:53.686Z,97.10
2022-09-05T01:43:25.031Z,96.80
2022-09-05T01:45:50.628Z,96.60
2022-09-05T01:48:05.742Z,96.20
2022-09-05T01:50:35.917Z,95.80
2022-09-05T01:53:00.475Z,95.40
2022-09-05T01:55:25.913Z,95.40
2022-09-05T01:57:44.101Z,95.20
2022-09-05T01:59:55.531Z,95.10
2022-09-05T02:02:24.468Z,95.00
2022-09-05T02:05:00.292Z,94.70
2022-09-05T02:07:30.530Z,94.50
2022-09-05T02:09:51.168Z,94.50
2022-09-05T02:12:08.261Z,94.20
2022-09-05T02:14:33.686Z,94.10
2022-09-05T02:16:47.205Z,93.90
2022-09-05T02:19:02.372Z,93.90
2022-09-05T02:21:16.976Z,93.90
2022-09-05T02:23:41.618Z,93.80
2022-09-05T02:26:01.304Z,93.90
2022-09-05T02:28:18.259Z,94.20
2022-09-05T02:30:28.356Z,94.20
2022-09-05T02:32:45.523Z,94.40
2022-09-05T02:35:01.307Z,94.30
2022-09-05T02:37:15.190Z,94.00
2022-09-05T02:45:03.689Z,93.90
2022-09-05T02:45:07.952Z,93.90
2022-09-05T02:45:09.926Z,93.90
2022-09-05T02:47:16.280Z,94.10
2022-09-05T02:50:51.723Z,94.10
2022-09-05T02:57:27.322Z,93.90
2022-09-05T02:57:39.230Z,93.70
2022-09-05T02:58:07.335Z,93.50
2022-09-05T03:00:10.838Z,93.20
2022-09-05T03:02:27.110Z,93.00
2022-09-05T03:04:43.020Z,92.90
2022-09-05T03:07:07.308Z,92.90
2022-09-05T03:09:29.386Z,93.20
2022-09-05T03:11:55.973Z,93.00
2022-09-05T03:14:47.030Z,92.80
2022-09-05T03:17:38.711Z,92.80
2022-09-05T03:20:32.075Z,92.90
2022-09-05T03:23:14.887Z,92.90
2022-09-05T03:25:54.223Z,92.80
2022-09-05T03:28:30.036Z,91.90
2022-09-05T03:30:58.392Z,92.00
2022-09-05T03:33:44.452Z,92.10
2022-09-05T03:36:23.989Z,92.30
2022-09-05T03:39:01.275Z,92.10
2022-09-05T03:41:33.853Z,91.70
2022-09-05T03:44:16.518Z,91.70
2022-09-05T03:46:44.432Z,91.90
2022-09-05T03:51:24.367Z,91.80
2022-09-05T03:57:04.925Z,91.50
2022-09-05T03:57:25.100Z,91.30
2022-09-05T03:57:49.993Z,91.10
2022-09-05T04:00:09.307Z,91.10
2022-09-05T04:08:09.760Z,90.90
2022-09-05T04:08:23.745Z,90.70
2022-09-05T04:08:28.209Z,90.60
2022-09-05T04:10:00.527Z,90.60
2022-09-05T04:12:21.212Z,90.60
2022-09-05T04:14:30.440Z,90.40
2022-09-05T04:16:52.601Z,90.20
2022-09-05T04:19:12.400Z,89.90
2022-09-05T04:21:23.933Z,89.60
2022-09-05T04:23:38.846Z,89.60
2022-09-05T04:26:11.010Z,89.60
2022-09-05T04:28:34.280Z,89.40
2022-09-05T04:30:46.588Z,89.20
2022-09-05T04:33:01.035Z,89.00
2022-09-05T04:35:24.445Z,88.90
2022-09-05T04:37:49.192Z,88.80
2022-09-05T04:39:56.648Z,88.40
2022-09-05T04:42:20.808Z,88.50
2022-09-05T04:44:34.483Z,88.10
2022-09-05T04:46:48.495Z,87.80
2022-09-05T04:49:04.924Z,87.40
2022-09-05T04:51:29.679Z,87.20
2022-09-05T04:53:58.249Z,86.80
2022-09-05T04:56:09.019Z,86.10
2022-09-05T04:59:17.433Z,86.70
2022-09-05T05:06:02.966Z,86.70
2022-09-05T05:06:12.588Z,87.10
2022-09-05T05:06:30.102Z,87.10
2022-09-05T05:08:38.921Z,87.00
2022-09-05T05:14:17.595Z,87.10
2022-09-05T05:17:54.907Z,87.00
2022-09-05T05:18:15.329Z,86.90
2022-09-05T05:18:39.509Z,86.20
2022-09-05T05:21:04.638Z,85.80
2022-09-05T05:23:14.421Z,85.30
2022-09-05T05:25:22.273Z,84.50
2022-09-05T05:27:40.101Z,84.50
2022-09-05T05:29:53.684Z,84.30
2022-09-05T05:32:03.602Z,83.40
2022-09-05T05:34:24.513Z,84.30
2022-09-05T05:36:35.195Z,83.00
2022-09-05T05:38:48.673Z,83.10
2022-09-05T05:41:00.053Z,83.20
2022-09-05T05:43:17.175Z,82.80
2022-09-05T05:45:31.056Z,82.10
2022-09-05T05:47:41.623Z,81.70
2022-09-05T05:49:57.506Z,81.90
2022-09-05T05:52:37.864Z,81.70
2022-09-05T05:54:51.297Z,82.00
2022-09-05T05:58:00.748Z,82.10
2022-09-05T06:00:28.121Z,82.00
2022-09-05T06:03:25.124Z,81.30
2022-09-05T06:06:16.916Z,80.10
2022-09-05T06:11:57.017Z,79.70
2022-09-05T06:14:56.052Z,79.90
2022-09-05T06:14:57.017Z,79.00
2022-09-05T06:17:52.387Z,80.10
2022-09-05T06:22:11.745Z,79.50
2022-09-05T06:23:39.226Z,80.00
2022-09-05T06:26:23.711Z,79.60
2022-09-05T06:28:46.105Z,78.90
2022-09-05T06:31:29.060Z,79.80
2022-09-05T06:33:49.052Z,79.00
2022-09-05T06:36:08.107Z,78.50
2022-09-05T06:38:29.625Z,78.20
2022-09-05T06:40:41.725Z,78.80
2022-09-05T06:43:08.924Z,79.10
2022-09-05T06:45:34.793Z,78.70
2022-09-05T06:47:45.147Z,79.30
2022-09-05T06:50:23.751Z,79.40
2022-09-05T06:53:08.205Z,79.10
2022-09-05T06:56:06.402Z,79.60
2022-09-05T06:58:43.129Z,79.80
2022-09-05T07:00:51.994Z,79.70
2022-09-05T07:03:29.201Z,80.10
2022-09-05T07:05:45.748Z,79.90
2022-09-05T07:07:56.552Z,80.20
2022-09-05T07:10:34.688Z,80.20
2022-09-05T07:12:40.966Z,80.40
2022-09-05T07:15:08.516Z,80.60
2022-09-05T07:17:20.721Z,81.00
2022-09-05T07:19:31.282Z,81.30
2022-09-05T07:21:49.184Z,81.60
2022-09-05T07:24:08.959Z,81.20
2022-09-05T07:26:25.253Z,81.40
2022-09-05T07:28:48.810Z,81.90
2022-09-05T07:31:04.250Z,82.10
2022-09-05T07:33:12.181Z,82.10
2022-09-05T07:35:22.694Z,82.00
2022-09-05T07:37:40.632Z,81.50
2022-09-05T07:39:54.067Z,80.80
2022-09-05T07:42:05.582Z,80.40
2022-09-05T07:44:22.203Z,80.60
2022-09-05T07:46:32.080Z,81.10
2022-09-05T07:48:43.058Z,81.60
2022-09-05T07:56:19.231Z,81.60
2022-09-05T07:56:59.650Z,80.50
2022-09-05T07:57:04.793Z,81.20
2022-09-05T07:58:32.730Z,80.20
2022-09-05T08:00:40.152Z,80.40
2022-09-05T08:02:52.690Z,80.30
2022-09-05T08:05:07.634Z,80.60
2022-09-05T08:07:49.636Z,80.20
2022-09-05T08:10:09.497Z,80.80
2022-09-05T08:12:27.623Z,81.60
2022-09-05T08:14:46.504Z,81.70
2022-09-05T08:16:53.786Z,82.20
2022-09-05T08:19:13.783Z,81.90
2022-09-05T08:21:27.839Z,82.10
2022-09-05T08:23:55.474Z,81.70
2022-09-05T08:26:11.257Z,82.00
2022-09-05T08:28:22.745Z,83.00
2022-09-05T08:30:30.960Z,83.70
2022-09-05T08:32:46.329Z,84.90
2022-09-05T08:34:58.263Z,85.60
2022-09-05T08:37:05.150Z,87.70
2022-09-05T08:39:14.778Z,87.40
2022-09-05T08:41:43.159Z,88.10
2022-09-05T08:46:44.173Z,88.60
2022-09-05T08:46:49.257Z,89.70
2022-09-05T08:49:36.915Z,90.50
2022-09-05T08:51:55.408Z,90.30
2022-09-05T08:54:19.754Z,90.50
2022-09-05T08:56:33.938Z,90.20
2022-09-05T08:59:28.002Z,89.40
2022-09-05T09:01:36.866Z,88.30
2022-09-05T09:05:00.645Z,89.40
2022-09-05T09:07:43.673Z,88.70
2022-09-05T09:09:51.385Z,89.10
2022-09-05T09:12:05.678Z,88.70
2022-09-05T09:14:48.352Z,88.60
2022-09-05T09:17:06.235Z,88.70
2022-09-05T09:19:18.750Z,88.10
2022-09-05T09:21:45.941Z,88.20
2022-09-05T09:23:58.899Z,88.30
2022-09-05T09:26:17.132Z,89.00
2022-09-05T09:28:51.820Z,89.30
2022-09-05T09:31:02.486Z,89.30
2022-09-05T09:33:13.914Z,89.20
2022-09-05T09:35:30.475Z,89.00
2022-09-05T09:38:04.477Z,89.00
2022-09-05T09:40:32.956Z,88.90
2022-09-05T09:42:49.045Z,89.70
2022-09-05T09:45:29.545Z,89.40
2022-09-05T09:48:17.446Z,88.50
2022-09-05T09:50:41.965Z,89.00
2022-09-05T09:53:17.793Z,89.30
2022-09-05T09:55:51.848Z,89.60
2022-09-05T09:58:17.514Z,89.70
2022-09-05T10:00:27.523Z,89.50
2022-09-05T10:08:59.761Z,89.10
2022-09-05T10:10:38.496Z,89.30
2022-09-05T10:10:49.029Z,89.40
2022-09-05T10:11:53.524Z,89.60
2022-09-05T10:14:49.974Z,89.70
2022-09-05T10:17:21.892Z,89.50
2022-09-05T10:20:09.851Z,89.50
2022-09-05T10:22:36.744Z,89.50
2022-09-05T10:25:12.190Z,88.40
2022-09-05T10:27:49.660Z,87.60
2022-09-05T10:30:13.857Z,86.70
2022-09-05T10:35:08.324Z,86.90
2022-09-05T10:35:17.459Z,86.90
2022-09-05T10:37:36.308Z,86.30
2022-09-05T10:39:48.202Z,86.80
2022-09-05T10:42:02.652Z,86.60
2022-09-05T10:44:13.268Z,86.30
2022-09-05T10:46:50.196Z,86.90
2022-09-05T10:49:09.771Z,87.00
2022-09-05T10:51:27.840Z,87.50
2022-09-05T10:53:44.359Z,88.20
2022-09-05T10:56:05.255Z,88.50
2022-09-05T10:58:52.494Z,88.80
2022-09-05T11:02:21.588Z,89.00
2022-09-05T11:03:46.825Z,89.20
2022-09-05T11:06:09.228Z,89.20
2022-09-05T11:08:27.408Z,89.30
2022-09-05T11:10:40.483Z,89.50
2022-09-05T11:13:01.275Z,89.60
2022-09-05T11:15:16.405Z,89.80
2022-09-05T11:17:36.330Z,90.10
2022-09-05T11:19:47.654Z,90.40
2022-09-05T11:22:22.259Z,90.70
2022-09-05T11:24:39.604Z,91.00
2022-09-05T11:26:58.253Z,91.20
2022-09-05T11:29:21.764Z,91.50
2022-09-05T11:32:19.103Z,91.80
2022-09-05T11:39:48.695Z,92.00
2022-09-05T11:39:54.294Z,92.30
2022-09-05T11:40:52.425Z,92.50
2022-09-05T11:44:25.328Z,92.90
2022-09-05T11:46:33.611Z,93.10
2022-09-05T11:49:16.996Z,93.10
2022-09-05T11:51:56.781Z,93.20
2022-09-05T11:54:33.660Z,93.20
2022-09-05T11:57:33.230Z,93.30
2022-09-05T12:00:32.813Z,93.50
2022-09-05T12:03:09.205Z,93.90
2022-09-05T12:05:59.207Z,94.00
2022-09-05T12:08:12.634Z,94.20
2022-09-05T12:10:46.306Z,94.20
2022-09-05T12:13:08.850Z,94.50
2022-09-05T12:15:38.865Z,94.60
2022-09-05T12:18:19.585Z,94.70
2022-09-05T12:20:43.326Z,94.00
2022-09-05T12:22:59.765Z,94.30
2022-09-05T12:27:38.930Z,94.00
2022-09-05T12:29:09.574Z,94.30
2022-09-05T12:31:00.745Z,94.70
2022-09-05T12:36:05.916Z,94.90
2022-09-05T12:36:11.512Z,95.20
2022-09-05T12:41:42.466Z,95.40
2022-09-05T12:41:45.235Z,95.40
2022-09-05T12:44:37.783Z,95.70
2022-09-05T12:46:24.807Z,95.90
2022-09-05T12:48:42.211Z,96.10
2022-09-05T12:50:59.232Z,96.50
2022-09-05T12:53:11.795Z,96.70
2022-09-05T12:55:33.617Z,96.70
2022-09-05T13:00:41.115Z,96.60
2022-09-05T13:02:57.373Z,96.60
2022-09-05T13:03:04.349Z,97.10
2022-09-05T13:05:20.686Z,97.20
2022-09-05T13:07:35.535Z,97.30
2022-09-05T13:13:30.569Z,97.40
2022-09-05T13:14:57.460Z,97.50
2022-09-05T13:15:22.792Z,97.50
2022-09-05T13:17:44.277Z,97.90
2022-09-05T13:19:55.227Z,97.70
2022-09-05T13:22:05.280Z,97.80
2022-09-05T13:24:15.635Z,97.80
2022-09-05T13:26:28.656Z,97.80
2022-09-05T13:28:46.640Z,97.80
2022-09-05T13:37:01.350Z,97.80
2022-09-05T13:37:58.205Z,98.00
2022-09-05T13:38:13.698Z,98.10
2022-09-05T13:38:48.719Z,98.10
2022-09-05T13:41:02.379Z,98.20
2022-09-05T13:43:13.524Z,98.10
2022-09-05T13:45:21.665Z,98.30
2022-09-05T13:47:53.931Z,98.40
2022-09-05T13:50:15.294Z,98.90
2022-09-05T13:52:31.655Z,99.00
2022-09-05T13:54:50.806Z,98.90
2022-09-05T13:57:31.656Z,98.90
2022-09-05T13:59:46.232Z,98.90
2022-09-05T14:02:28.361Z,98.80
2022-09-05T14:05:19.425Z,98.90
2022-09-05T14:08:18.978Z,99.40
2022-09-05T14:11:10.112Z,99.60
2022-09-05T14:13:23.528Z,99.90
2022-09-05T14:15:40.149Z,99.90
2022-09-05T14:18:02.089Z,99.90
2022-09-05T14:20:54.204Z,99.90
2022-09-05T14:23:09.168Z,99.90
2022-09-05T14:25:23.121Z,99.90
2022-09-05T14:27:32.683Z,99.70
2022-09-05T14:29:42.798Z,99.70
2022-09-05T14:37:36.916Z,99.60
2022-09-05T14:37:49.871Z,99.60
2022-09-05T14:38:13.266Z,99.80
2022-09-05T14:40:47.813Z,99.90
2022-09-05T14:43:27.042Z,99.90
2022-09-05T14:45:51.378Z,99.90
2022-09-05T14:48:31.510Z,99.90
2022-09-05T14:50:59.640Z,99.90
2022-09-05T14:56:23.162Z,99.90
2022-09-05T15:02:38.747Z,99.90
2022-09-05T15:02:58.246Z,99.90
2022-09-05T15:05:55.997Z,99.90
2022-09-05T15:08:22.695Z,99.90
2022-09-05T15:12:14.875Z,99.90
2022-09-05T15:13:10.865Z,99.90
2022-09-05T15:15:26.881Z,99.90
2022-09-05T15:17:35.082Z,99.90
2022-09-05T15:20:05.757Z,99.90
2022-09-05T15:22:27.448Z,99.90
2022-09-05T15:24:34.668Z,99.90
2022-09-05T15:26:53.564Z,99.90
2022-09-05T15:29:14.723Z,99.90
2022-09-05T15:31:29.143Z,99.90
2022-09-05T15:33:37.035Z,99.90
2022-09-05T15:35:46.062Z,99.90
2022-09-05T15:37:53.291Z,99.90
2022-09-05T15:40:22.482Z,99.90
2022-09-05T15:42:35.367Z,99.90
2022-09-05T15:45:06.431Z,99.90
2022-09-05T15:47:11.649Z,99.90
2022-09-05T15:49:29.975Z,99.90
2022-09-05T15:51:47.963Z,99.90
2022-09-05T15:53:57.450Z,99.90
2022-09-05T15:56:18.641Z,99.90
2022-09-05T15:58:35.965Z,99.90
2022-09-05T16:00:56.668Z,99.90
2022-09-05T16:03:58.152Z,99.90
2022-09-05T16:10:28.191Z,99.90
2022-09-05T16:10:46.930Z,99.90
2022-09-05T16:11:04.499Z,99.90
2022-09-05T16:13:03.575Z,99.90
2022-09-05T16:16:01.346Z,99.90
2022-09-05T16:23:13.618Z,99.90
2022-09-05T16:23:31.186Z,99.90
2022-09-05T16:23:32.671Z,99.90
2022-09-05T16:25:29.134Z,99.90
2022-09-05T16:27:53.272Z,99.90
2022-09-05T16:30:00.612Z,99.90
2022-09-05T16:32:18.029Z,99.90
2022-09-05T16:34:34.951Z,99.90
2022-09-05T16:37:05.135Z,99.90
2022-09-05T16:39:21.056Z,99.90
2022-09-05T16:41:38.776Z,99.90
2022-09-05T16:43:52.050Z,99.90
2022-09-05T16:46:06.601Z,99.90
2022-09-05T16:48:34.987Z,99.90
2022-09-05T16:50:49.290Z,99.90
2022-09-05T16:53:37.455Z,99.90
2022-09-05T16:55:49.279Z,99.90
2022-09-05T16:58:08.946Z,99.90
2022-09-05T17:00:22.130Z,99.90
2022-09-05T17:02:33.418Z,99.90
2022-09-05T17:05:08.020Z,99.90
2022-09-05T17:07:22.216Z,99.90
2022-09-05T17:09:30.889Z,99.90
2022-09-05T17:12:00.758Z,99.90
2022-09-05T17:14:16.271Z,99.90
2022-09-05T17:16:32.883Z,99.90
2022-09-05T17:18:41.640Z,99.90
2022-09-05T17:20:54.454Z,99.90
2022-09-05T17:29:18.858Z,99.90
2022-09-05T17:29:21.066Z,99.90
2022-09-05T17:29:24.591Z,99.90
2022-09-05T17:33:43.454Z,99.90
2022-09-05T17:36:11.656Z,99.90
2022-09-05T17:38:59.338Z,99.90
2022-09-05T17:41:45.892Z,99.90
2022-09-05T17:44:00.145Z,99.90
2022-09-05T17:46:22.116Z,99.90
2022-09-05T17:49:05.348Z,99.90
2022-09-05T17:51:17.238Z,99.90
2022-09-05T17:53:32.014Z,99.90
2022-09-05T17:56:15.541Z,99.90
2022-09-05T17:58:28.231Z,99.90
2022-09-05T18:01:08.691Z,99.90
2022-09-05T18:03:35.959Z,99.90
2022-09-05T18:06:05.574Z,99.90
2022-09-05T18:08:35.531Z,99.90
2022-09-05T18:11:08.921Z,99.90
2022-09-05T18:13:31.784Z,99.90
2022-09-05T18:16:13.320Z,99.90
2022-09-05T18:19:32.230Z,99.90
2022-09-05T18:23:54.244Z,99.90
2022-09-05T18:26:05.500Z,99.90
2022-09-05T18:28:24.084Z,99.90
2022-09-05T18:33:56.185Z,99.90
2022-09-05T18:35:38.421Z,99.90
2022-09-05T18:38:51.436Z,99.90
2022-09-05T18:41:22.075Z,99.90
2022-09-05T18:43:36.740Z,99.90
2022-09-05T18:45:52.352Z,99.90
2022-09-05T18:48:02.936Z,99.90
2022-09-05T18:50:24.760Z,99.90
2022-09-05T18:52:37.207Z,99.90
2022-09-05T18:54:52.093Z,99.90
2022-09-05T18:57:28.291Z,99.90
2022-09-05T18:59:39.510Z,99.90
2022-09-05T19:02:00.731Z,99.90
2022-09-05T19:04:10.715Z,99.90
2022-09-05T19:06:45.296Z,99.90
2022-09-05T19:08:58.890Z,99.90
2022-09-05T19:11:28.476Z,99.90
2022-09-05T19:13:40.379Z,99.90
2022-09-05T19:15:58.745Z,99.90
2022-09-05T19:18:27.459Z,99.90
2022-09-05T19:20:58.039Z,99.90
2022-09-05T19:23:14.495Z,99.90
2022-09-05T19:25:30.616Z,99.90
2022-09-05T19:35:21.582Z,99.90
2022-09-05T19:36:46.815Z,99.90
2022-09-05T19:37:05.138Z,99.90
2022-09-05T19:37:22.834Z,99.90
2022-09-05T19:37:52.255Z,99.90
2022-09-05T19:44:32.444Z,99.90
2022-09-05T19:47:40.242Z,99.90
2022-09-05T19:47:41.874Z,99.90
2022-09-05T19:48:03.854Z,99.90
2022-09-05T19:50:06.931Z,99.90
2022-09-05T19:52:18.416Z,99.90
2022-09-05T19:54:30.668Z,99.90
2022-09-05T19:56:41.689Z,99.90
2022-09-05T19:58:49.152Z,99.90
2022-09-05T20:01:09.221Z,99.90
2022-09-05T20:03:24.192Z,99.90
2022-09-05T20:05:31.971Z,99.90
2022-09-05T20:07:50.465Z,99.90
2022-09-05T20:09:59.360Z,99.90
2022-09-05T20:12:07.857Z,99.90
2022-09-05T20:14:28.189Z,99.90
2022-09-05T20:16:35.427Z,99.90
2022-09-05T20:18:45.391Z,99.90
2022-09-05T20:21:01.160Z,99.90
2022-09-05T20:23:11.167Z,99.90
2022-09-05T20:25:35.347Z,99.90
2022-09-05T20:27:44.255Z,99.90
2022-09-05T20:29:59.229Z,99.90
2022-09-05T20:32:07.322Z,99.90
2022-09-05T20:38:04.788Z,99.90
2022-09-05T20:43:25.330Z,99.90
2022-09-05T20:43:27.334Z,99.90
2022-09-05T20:44:22.693Z,99.90
2022-09-05T20:50:58.288Z,99.90
2022-09-05T20:54:08.193Z,99.90
2022-09-05T20:54:25.870Z,99.90
2022-09-05T20:54:54.553Z,99.90
2022-09-05T20:57:32.424Z,99.90
2022-09-05T20:59:58.093Z,99.90
2022-09-05T21:04:41.025Z,99.90
2022-09-05T21:09:25.067Z,99.90
2022-09-05T21:11:34.774Z,99.90
2022-09-05T21:13:52.623Z,99.90
2022-09-05T21:16:19.592Z,99.90
2022-09-05T21:18:33.091Z,99.90
2022-09-05T21:25:56.896Z,99.90
2022-09-05T21:28:06.475Z,99.90
2022-09-05T21:32:50.226Z,99.90
2022-09-05T21:35:34.740Z,99.90
2022-09-05T21:37:44.836Z,99.90
2022-09-05T21:39:59.899Z,99.90
2022-09-05T21:47:42.246Z,99.90
2022-09-05T21:47:46.740Z,99.90
2022-09-05T21:49:26.894Z,99.90
2022-09-05T21:51:34.535Z,99.90
2022-09-05T21:59:21.048Z,99.90
2022-09-05T21:59:21.157Z,99.90
2022-09-05T21:59:28.596Z,99.90
2022-09-05T22:01:51.414Z,99.90
2022-09-05T22:03:54.486Z,99.90
2022-09-05T22:06:07.381Z,99.90
2022-09-05T22:08:15.555Z,99.90
2022-09-05T22:10:35.434Z,99.90
2022-09-05T22:12:52.361Z,99.90
2022-09-05T22:15:11.485Z,99.90
2022-09-05T22:17:27.130Z,99.90
2022-09-05T22:19:37.680Z,99.90
2022-09-05T22:21:45.203Z,99.90
2022-09-05T22:23:54.924Z,99.90
2022-09-05T22:26:06.405Z,99.90
2022-09-05T22:28:17.234Z,99.90
2022-09-05T22:30:24.452Z,99.90
2022-09-05T22:32:34.295Z,99.90
2022-09-05T22:34:42.776Z,99.90
2022-09-05T22:36:51.952Z,99.90
2022-09-05T22:38:59.381Z,99.90
2022-09-05T22:41:08.770Z,99.90
2022-09-05T22:43:15.991Z,99.90
2022-09-05T22:45:23.329Z,99.90
2022-09-05T22:47:50.271Z,99.90
2022-09-05T22:49:57.308Z,99.90
2022-09-05T22:52:22.004Z,99.90
2022-09-05T22:54:29.179Z,99.90
2022-09-05T22:56:40.456Z,99.90
2022-09-05T22:58:48.570Z,99.90
2022-09-05T23:00:56.414Z,99.90
2022-09-05T23:03:04.503Z,99.90
2022-09-05T23:05:12.311Z,99.90
2022-09-05T23:07:19.227Z,99.90
2022-09-05T23:09:26.338Z,99.90
2022-09-05T23:11:33.698Z,99.90
2022-09-05T23:13:42.976Z,99.90
2022-09-05T23:15:50.230Z,99.90
2022-09-05T23:17:57.759Z,99.90
2022-09-05T23:20:06.424Z,99.90
2022-09-05T23:22:13.448Z,99.90
2022-09-05T23:24:20.933Z,99.90
2022-09-05T23:26:27.916Z,99.90
2022-09-05T23:28:37.434Z,99.90
2022-09-05T23:30:50.478Z,99.90
2022-09-05T23:32:57.810Z,99.90
2022-09-05T23:35:05.138Z,99.90
2022-09-05T23:37:12.677Z,99.90
2022-09-05T23:39:20.222Z,99.90
2022-09-05T23:41:27.559Z,99.90
2022-09-05T23:43:35.139Z,99.90
2022-09-05T23:45:42.485Z,99.90
2022-09-05T23:47:51.343Z,99.90
2022-09-05T23:49:58.582Z,99.90
2022-09-05T23:52:05.811Z,99.90
2022-09-05T23:54:13.157Z,99.90
2022-09-05T23:56:20.174Z,99.90
2022-09-05T23:58:27.626Z,99.90
